This is the latest recevied weather packets stored in our database for station/object DL5DI-H. If no packets are shown the sender has not sent any weather packets the latest 10 day(s).
| Time | Temp. | Humidity | Pressure | Rain* | Wind** | Luminosity | Snow |
|---|---|---|---|---|---|---|---|
| 1777699204 | 6.67° C | 76% | 1022.4 hPa | 0 mm | - | - | - |
| 1777698605 | 6.67° C | 76% | 1022.4 hPa | 0 mm | - | - | - |
| 1777698005 | 6.67° C | 76% | 1022.4 hPa | 0 mm | - | - | - |
| 1777697401 | 6.67° C | 76% | 1022.4 hPa | 0 mm | - | - | - |
| 1777696801 | 6.67° C | 76% | 1022.4 hPa | 0 mm | - | - | - |
| 1777696201 | 6.67° C | 76% | 1022.4 hPa | 0 mm | - | - | - |
| 1777695605 | 6.67° C | 76% | 1022.4 hPa | 0 mm | - | - | - |
| 1777695001 | 6.67° C | 76% | 1022.4 hPa | 0 mm | - | - | - |
| 1777694405 | 6.67° C | 75% | 1022.5 hPa | 0 mm | - | - | - |
| 1777693204 | 7.22° C | 75% | 1022.5 hPa | 0 mm | - | - | - |
| 1777692605 | 7.22° C | 75% | 1022.6 hPa | 0 mm | - | - | - |
| 1777692001 | 7.22° C | 75% | 1022.6 hPa | 0 mm | - | - | - |
| 1777691400 | 7.22° C | 74% | 1022.6 hPa | 0 mm | - | - | - |
| 1777690804 | 7.78° C | 74% | 1022.6 hPa | 0 mm | - | - | - |
| 1777690205 | 7.78° C | 74% | 1022.6 hPa | 0 mm | - | - | - |
| 1777689601 | 7.78° C | 73% | 1022.6 hPa | 0 mm | - | - | - |
| 1777689000 | 7.78° C | 73% | 1022.6 hPa | 0 mm | - | - | - |
| 1777688401 | 7.78° C | 73% | 1022.6 hPa | 0 mm | - | - | - |
| 1777674000 | 11.67° C | 63% | 1023.7 hPa | 0 mm | - | - | - |
| 1777671006 | 12.78° C | 60% | 1023.7 hPa | 0 mm | - | - | - |
| 1777670405 | 13.33° C | 59% | 1023.7 hPa | 0 mm | - | - | - |
| 1777668005 | 15° C | 55% | 1023.7 hPa | 0 mm | - | - | - |
| 1777665001 | 17.22° C | 50% | 1023.6 hPa | 0 mm | - | - | - |
| 1777663205 | 18.89° C | 44% | 1023.5 hPa | 0 mm | - | - | - |
| 1777650001 | 25.56° C | 28% | 1024.2 hPa | 0 mm | - | - | - |
* Rain latest hour (hover to see other rain measurements)
** Current wind speed in m/s (hover to see current wind gust speed)